Amity, North Carolina
Current Conditions -  °F | °C
As of 2:35 PM on Tuesday 21 Oct 2014 (Local Time) from KRUQ Reporting Station
Broken Clouds Broken Clouds  
Wind Chill: 20°   Ceiling: 7000
Heat Index: 20°   Visibility: 10mi
Dew Point:   Wind: 5mph
Humidity: 48%   Direction: 280°W
Pressure: 29.88"   Gusts: NA
Location:  35.7427°N, 80.712°W
Report Text: KRUQ 211835Z AUTO 28004KT 10SM SCT060 BKN070 20/09 A2988 RMK AO2 T02000087
Loading
Personal Weather Stations






























Interactive Weather Map
Tropical Storm Tracking
New forecast layout! Learn more

10-Day Weather Forecast

Advertisements
Track Severe Weather on mobile